Time;durP1;ratioP1;P1;durP2;ratioP2;P2;SDS_P1;SDS_P2;PMS_P1;PMS_P2;Temp;Humidity;BMP_temperature;BMP_pressure;BME280_temperature;BME280_humidity;BME280_pressure;Samples;Min_cycle;Max_cycle;Signal;HPM_P1;HPM_P2
2021/03/08 00:02:17;;;;;;;0.40;0.40;;;-0.40;99.90;;;;;;5056509;28;20586;-68
2021/03/08 00:04:43;;;;;;;0.50;0.50;;;-0.50;99.90;;;;;;5055901;28;20634;-67
2021/03/08 00:07:08;;;;;;;0.40;0.40;;;-0.40;99.90;;;;;;5065957;28;20200;-67
2021/03/08 00:09:34;;;;;;;1.27;1.27;;;-0.40;99.90;;;;;;5074999;28;20410;-66
2021/03/08 00:11:59;;;;;;;0.43;0.43;;;-0.40;99.90;;;;;;5066068;28;20649;-68
2021/03/08 00:14:25;;;;;;;0.40;0.40;;;-0.40;99.90;;;;;;5055844;28;20188;-66
2021/03/08 00:16:51;;;;;;;0.33;0.33;;;-0.40;99.90;;;;;;5063858;28;20208;-67
2021/03/08 00:19:18;;;;;;;1.27;1.27;;;-0.40;99.90;;;;;;5076117;28;20402;-66
2021/03/08 00:21:46;;;;;;;0.40;0.40;;;-0.40;99.90;;;;;;5068543;28;20178;-65
2021/03/08 00:24:12;;;;;;;0.40;0.40;;;-0.40;99.90;;;;;;5055494;28;20169;-65
2021/03/08 00:26:38;;;;;;;0.30;0.30;;;-0.40;99.90;;;;;;5065221;28;20250;-67
2021/03/08 00:29:04;;;;;;;1.00;1.00;;;-0.40;99.90;;;;;;5056096;28;20177;-65
2021/03/08 00:31:29;;;;;;;0.30;0.30;;;-0.40;99.90;;;;;;5067487;28;20785;-67
2021/03/08 00:33:55;;;;;;;0.33;0.33;;;-0.50;99.90;;;;;;5074163;28;20509;-66
2021/03/08 00:36:20;;;;;;;0.40;0.40;;;-0.50;99.90;;;;;;5064918;28;20688;-65
2021/03/08 00:38:46;;;;;;;0.30;0.30;;;-0.50;99.90;;;;;;5055605;28;20169;-67
2021/03/08 00:41:11;;;;;;;0.93;0.93;;;-0.60;99.90;;;;;;5056940;28;20214;-66
2021/03/08 00:43:37;;;;;;;0.40;0.40;;;-0.60;99.90;;;;;;5055488;28;20524;-66
2021/03/08 00:46:03;;;;;;;1.17;1.17;;;-0.60;99.90;;;;;;5062383;28;20193;-67
2021/03/08 00:48:28;;;;;;;0.33;0.33;;;-0.60;99.90;;;;;;5075343;28;20707;-66
2021/03/08 00:50:54;;;;;;;0.43;0.43;;;-0.60;99.90;;;;;;5068974;28;20185;-65
2021/03/08 00:53:20;;;;;;;0.43;0.43;;;-0.70;99.90;;;;;;5054160;28;20515;-66
2021/03/08 00:55:45;;;;;;;0.40;0.40;;;-0.70;99.90;;;;;;5057457;28;20200;-65
2021/03/08 00:58:11;;;;;;;0.40;0.40;;;-0.80;99.90;;;;;;5053958;28;20189;-65
2021/03/08 01:00:37;;;;;;;0.40;0.40;;;-0.80;99.90;;;;;;5058345;28;20173;-66
2021/03/08 01:03:03;;;;;;;0.30;0.30;;;-0.90;99.90;;;;;;5074017;28;20207;-67
2021/03/08 01:05:29;;;;;;;0.40;0.40;;;-0.90;99.90;;;;;;5071625;28;20192;-66
2021/03/08 01:07:54;;;;;;;0.30;0.30;;;-0.90;99.90;;;;;;5053868;28;20579;-66
2021/03/08 01:10:24;;;;;;;0.33;0.33;;;-0.90;99.90;;;;;;5055125;28;20166;-66
2021/03/08 01:12:50;;;;;;;0.50;0.50;;;-0.90;99.90;;;;;;5055646;28;20542;-67
2021/03/08 01:15:16;;;;;;;0.50;0.50;;;-0.90;99.90;;;;;;5054552;28;20277;-66
2021/03/08 01:17:42;;;;;;;0.60;0.60;;;-0.90;99.90;;;;;;5055012;28;20193;-67
2021/03/08 01:20:10;;;;;;;0.30;0.30;;;-0.90;99.90;;;;;;5055251;28;20170;-67
2021/03/08 01:22:36;;;;;;;0.55;0.55;;;-1.00;99.90;;;;;;5070974;28;20643;-67
2021/03/08 01:25:10;;;;;;;0.50;0.50;;;-1.00;99.90;;;;;;5074446;28;20242;-66
2021/03/08 01:27:35;;;;;;;0.40;0.40;;;-1.00;99.90;;;;;;5068128;28;20264;-65
2021/03/08 01:30:02;;;;;;;0.50;0.50;;;-1.00;99.90;;;;;;5054815;28;20204;-67
2021/03/08 01:32:27;;;;;;;0.40;0.40;;;-1.10;99.90;;;;;;5070160;28;20192;-67
2021/03/08 01:34:53;;;;;;;0.33;0.33;;;-1.20;99.90;;;;;;5067677;28;20169;-68
2021/03/08 01:37:18;;;;;;;0.50;0.50;;;-1.10;99.90;;;;;;5066691;28;20204;-67
2021/03/08 01:39:44;;;;;;;0.50;0.50;;;-1.20;99.90;;;;;;5054855;28;20207;-68
2021/03/08 01:42:10;;;;;;;0.33;0.33;;;-1.20;99.90;;;;;;5066666;28;20181;-66
2021/03/08 01:44:35;;;;;;;0.50;0.50;;;-1.20;99.90;;;;;;5074135;28;20631;-66
2021/03/08 01:47:01;;;;;;;0.50;0.50;;;-1.30;99.90;;;;;;5073610;28;20184;-67
2021/03/08 01:49:27;;;;;;;0.97;0.97;;;-1.20;99.90;;;;;;5069010;28;20531;-66
2021/03/08 01:51:52;;;;;;;0.40;0.40;;;-1.20;99.90;;;;;;5067176;28;20449;-67
2021/03/08 01:54:18;;;;;;;0.33;0.33;;;-1.30;99.90;;;;;;5064749;28;20173;-67
2021/03/08 01:56:44;;;;;;;4.63;2.67;;;-1.30;99.90;;;;;;5052603;28;20213;-66
2021/03/08 01:59:10;;;;;;;0.40;0.40;;;-1.40;99.90;;;;;;5054340;28;20200;-68
2021/03/08 02:01:36;;;;;;;0.40;0.40;;;-1.40;99.90;;;;;;5054098;28;20461;-68
2021/03/08 02:04:02;;;;;;;0.38;0.38;;;-1.40;99.90;;;;;;5054476;28;21199;-68
2021/03/08 02:06:28;;;;;;;0.30;0.30;;;-1.40;99.90;;;;;;5054901;28;20197;-67
2021/03/08 02:08:54;;;;;;;0.47;0.47;;;-1.40;99.90;;;;;;5053823;28;20230;-66
2021/03/08 02:11:19;;;;;;;0.37;0.37;;;-1.50;99.90;;;;;;5053797;28;20420;-68
2021/03/08 02:14:16;;;;;;;0.40;0.40;;;-1.40;99.90;;;;;;5061748;28;20207;-69
2021/03/08 02:16:59;;;;;;;1.15;1.10;;;-1.40;99.90;;;;;;5057860;28;20231;-67
2021/03/08 02:19:53;;;;;;;0.40;0.40;;;-1.40;99.90;;;;;;5074024;28;20252;-70
2021/03/08 02:22:56;;;;;;;0.40;0.40;;;-1.50;99.90;;;;;;5064230;28;20169;-68
2021/03/08 02:25:38;;;;;;;0.40;0.40;;;-1.50;99.90;;;;;;5059891;28;20287;-67
2021/03/08 02:28:18;;;;;;;0.32;0.32;;;-1.50;99.90;;;;;;5072022;28;20539;-66
2021/03/08 02:30:44;;;;;;;1.58;1.48;;;-1.50;99.90;;;;;;5062797;28;20627;-67
2021/03/08 02:33:13;;;;;;;0.40;0.40;;;-1.60;99.90;;;;;;5053568;28;20181;-68
2021/03/08 02:35:43;;;;;;;0.40;0.40;;;-1.60;99.90;;;;;;5061694;28;20208;-67
2021/03/08 02:38:16;;;;;;;0.40;0.40;;;-1.60;99.90;;;;;;5073875;28;20227;-66
2021/03/08 02:40:47;;;;;;;0.40;0.40;;;-1.60;99.90;;;;;;5064491;28;20165;-66
2021/03/08 02:43:23;;;;;;;0.40;0.40;;;-1.60;99.90;;;;;;5065178;28;20177;-66
2021/03/08 02:45:52;;;;;;;0.50;0.50;;;-1.60;99.90;;;;;;5063712;28;20246;-67
2021/03/08 02:48:20;;;;;;;0.50;0.50;;;-1.60;99.90;;;;;;5054753;28;20579;-67
2021/03/08 02:50:47;;;;;;;0.40;0.40;;;-1.60;99.90;;;;;;5061257;28;20573;-66
2021/03/08 02:53:16;;;;;;;0.50;0.50;;;-1.60;99.90;;;;;;5073437;28;20165;-66
2021/03/08 02:55:49;;;;;;;0.30;0.30;;;-1.60;99.90;;;;;;5065368;28;20201;-67
2021/03/08 02:58:17;;;;;;;0.93;0.93;;;-1.70;99.90;;;;;;5068533;28;20602;-68
2021/03/08 03:00:44;;;;;;;0.43;0.43;;;-1.80;99.90;;;;;;5059697;28;20638;-66
2021/03/08 03:03:12;;;;;;;0.40;0.40;;;-1.80;99.90;;;;;;5059181;28;20184;-66
2021/03/08 03:05:40;;;;;;;0.40;0.40;;;-1.80;99.90;;;;;;5057703;28;20612;-68
2021/03/08 03:08:08;;;;;;;0.40;0.40;;;-1.80;99.90;;;;;;5071774;28;20623;-67
2021/03/08 03:10:36;;;;;;;0.50;0.50;;;-1.90;99.90;;;;;;5068738;28;20189;-66
2021/03/08 03:13:03;;;;;;;0.40;0.40;;;-1.90;99.90;;;;;;5054723;28;20234;-67
2021/03/08 03:15:32;;;;;;;0.40;0.40;;;-1.90;99.90;;;;;;5060454;28;20452;-67
2021/03/08 03:17:59;;;;;;;0.45;0.45;;;-1.90;99.90;;;;;;5062986;28;20199;-66
2021/03/08 03:20:26;;;;;;;0.50;0.50;;;-2.00;99.90;;;;;;5059817;28;20177;-68
2021/03/08 03:22:52;;;;;;;0.50;0.50;;;-2.00;99.90;;;;;;5059234;28;20180;-68
2021/03/08 03:25:21;;;;;;;1.67;1.45;;;-2.00;99.90;;;;;;5059765;28;20214;-67
2021/03/08 03:27:49;;;;;;;0.40;0.40;;;-2.10;99.90;;;;;;5057125;28;20201;-68
2021/03/08 03:30:18;;;;;;;0.40;0.40;;;-2.10;99.90;;;;;;5058307;28;20181;-67
2021/03/08 03:32:44;;;;;;;0.38;0.38;;;-2.10;99.90;;;;;;5057095;28;20192;-66
2021/03/08 03:35:12;;;;;;;0.40;0.40;;;-2.10;99.90;;;;;;5058252;28;20259;-68
2021/03/08 03:37:39;;;;;;;0.40;0.40;;;-2.10;99.90;;;;;;5076670;28;20283;-68
2021/03/08 03:40:07;;;;;;;0.50;0.50;;;-2.10;99.90;;;;;;5072088;28;20246;-67
2021/03/08 03:42:33;;;;;;;0.40;0.40;;;-2.10;99.90;;;;;;5076381;28;20234;-68
2021/03/08 03:44:59;;;;;;;0.60;0.60;;;-2.10;99.90;;;;;;5075456;28;20184;-67
2021/03/08 03:47:24;;;;;;;0.40;0.40;;;-2.10;99.90;;;;;;5076861;28;20700;-66
2021/03/08 03:49:50;;;;;;;0.40;0.40;;;-2.10;99.90;;;;;;5076700;28;20504;-67
2021/03/08 03:52:16;;;;;;;0.40;0.40;;;-2.20;99.90;;;;;;5057788;28;20227;-68
2021/03/08 03:54:42;;;;;;;0.40;0.40;;;-2.30;99.90;;;;;;5060819;28;20556;-67
2021/03/08 03:57:11;;;;;;;0.40;0.40;;;-2.20;99.90;;;;;;5059303;28;20981;-67
2021/03/08 03:59:50;;;;;;;0.40;0.40;;;-2.30;99.90;;;;;;5056620;28;20617;-67
2021/03/08 04:02:24;;;;;;;0.40;0.40;;;-2.30;99.90;;;;;;5072074;28;20179;-68
2021/03/08 04:04:53;;;;;;;0.60;0.60;;;-2.30;99.90;;;;;;5075859;28;20172;-67
2021/03/08 04:07:20;;;;;;;0.50;0.50;;;-2.30;99.90;;;;;;5057876;28;20200;-68
2021/03/08 04:09:49;;;;;;;0.45;0.45;;;-2.30;99.90;;;;;;5062316;28;20205;-67
2021/03/08 04:12:18;;;;;;;0.40;0.40;;;-2.30;99.90;;;;;;5059189;28;20177;-67
2021/03/08 04:14:47;;;;;;;0.38;0.38;;;-2.30;99.90;;;;;;5055592;28;20169;-68
2021/03/08 04:17:14;;;;;;;0.43;0.43;;;-2.30;99.90;;;;;;5071333;28;20597;-68
2021/03/08 04:19:41;;;;;;;0.40;0.40;;;-2.30;99.90;;;;;;5054793;28;20166;-66
2021/03/08 04:22:09;;;;;;;0.47;0.47;;;-2.30;99.90;;;;;;5069338;28;20263;-67
2021/03/08 04:24:37;;;;;;;0.40;0.40;;;-2.40;99.90;;;;;;5069055;28;20165;-66
2021/03/08 04:27:06;;;;;;;0.60;0.60;;;-2.40;99.90;;;;;;5054734;28;20170;-66
2021/03/08 04:29:42;;;;;;;0.30;0.30;;;-2.40;99.90;;;;;;5060154;28;20226;-67
2021/03/08 04:32:09;;;;;;;0.40;0.40;;;-2.50;99.90;;;;;;5074140;28;20533;-66
2021/03/08 04:34:39;;;;;;;4.60;1.65;;;-2.50;99.90;;;;;;5059305;28;20183;-65
2021/03/08 04:37:05;;;;;;;0.40;0.40;;;-2.50;99.90;;;;;;5075726;28;20185;-66
2021/03/08 04:39:37;;;;;;;0.38;0.38;;;-2.60;99.90;;;;;;5072343;28;20170;-66
2021/03/08 04:42:07;;;;;;;0.50;0.50;;;-2.60;99.90;;;;;;5055841;28;20575;-67
2021/03/08 04:44:34;;;;;;;0.60;0.60;;;-2.60;99.90;;;;;;5057608;28;20169;-66
2021/03/08 04:47:01;;;;;;;0.50;0.50;;;-2.70;99.90;;;;;;5075025;28;20657;-67
2021/03/08 04:49:27;;;;;;;0.40;0.40;;;-2.70;99.90;;;;;;5074073;28;20583;-65
2021/03/08 04:51:53;;;;;;;0.40;0.40;;;-2.70;99.90;;;;;;5055454;28;20197;-66
2021/03/08 04:54:19;;;;;;;0.50;0.50;;;-2.70;99.90;;;;;;5055502;28;20177;-66
2021/03/08 04:56:47;;;;;;;1.80;1.70;;;-2.70;99.90;;;;;;5074702;28;20235;-67
2021/03/08 04:59:14;;;;;;;0.40;0.40;;;-2.70;99.90;;;;;;5074009;28;20165;-66
2021/03/08 05:01:43;;;;;;;0.40;0.40;;;-2.60;99.90;;;;;;5055685;28;20304;-66
2021/03/08 05:04:09;;;;;;;0.43;0.43;;;-2.60;99.90;;;;;;5054898;28;20536;-66
2021/03/08 05:06:40;;;;;;;0.40;0.40;;;-2.60;99.90;;;;;;5072906;28;20188;-67
2021/03/08 05:09:08;;;;;;;0.50;0.50;;;-2.60;99.90;;;;;;5075004;28;20220;-67
2021/03/08 05:11:35;;;;;;;0.40;0.40;;;-2.70;99.90;;;;;;5064496;28;20181;-66
2021/03/08 05:14:05;;;;;;;0.50;0.50;;;-2.70;99.90;;;;;;5054660;28;20201;-66
2021/03/08 05:16:32;;;;;;;0.40;0.40;;;-2.70;99.90;;;;;;5066097;28;20284;-67
2021/03/08 05:19:00;;;;;;;0.50;0.50;;;-2.70;99.90;;;;;;5055140;28;20170;-66
2021/03/08 05:21:28;;;;;;;0.47;0.47;;;-2.70;99.90;;;;;;5070380;28;20318;-66
2021/03/08 05:23:56;;;;;;;0.30;0.30;;;-2.60;99.90;;;;;;5072968;28;20180;-67
2021/03/08 05:26:23;;;;;;;0.40;0.40;;;-2.70;99.90;;;;;;5063344;28;20208;-66
2021/03/08 05:28:50;;;;;;;0.45;0.45;;;-2.70;99.90;;;;;;5074847;28;20191;-68
2021/03/08 05:31:16;;;;;;;0.38;0.38;;;-2.70;99.90;;;;;;5073921;28;20706;-67
2021/03/08 05:33:42;;;;;;;0.40;0.40;;;-2.70;99.90;;;;;;5073318;28;20549;-67
2021/03/08 05:36:09;;;;;;;0.32;0.32;;;-2.70;99.90;;;;;;5060160;28;20611;-66
2021/03/08 05:38:36;;;;;;;0.40;0.40;;;-2.60;99.90;;;;;;5053305;28;20582;-67
2021/03/08 05:41:19;;;;;;;0.43;0.43;;;-2.60;99.90;;;;;;5065349;28;20576;-66
2021/03/08 05:43:48;;;;;;;2.17;1.75;;;-2.70;99.90;;;;;;5074085;28;20169;-66
2021/03/08 05:46:22;;;;;;;0.38;0.38;;;-2.70;99.90;;;;;;5061990;28;20241;-67
2021/03/08 05:49:24;;;;;;;0.43;0.43;;;-2.70;99.90;;;;;;5053045;28;20578;-67
2021/03/08 05:52:27;;;;;;;0.40;0.40;;;-2.70;99.90;;;;;;5058356;28;20517;-65
2021/03/08 05:55:17;;;;;;;0.43;0.43;;;-2.70;99.90;;;;;;5054029;28;20223;-67
2021/03/08 05:58:02;;;;;;;0.45;0.45;;;-2.70;99.90;;;;;;5074217;28;20204;-67
2021/03/08 06:00:56;;;;;;;0.40;0.40;;;-2.70;99.90;;;;;;5068627;28;20188;-67
2021/03/08 06:03:56;;;;;;;0.50;0.50;;;-2.70;99.90;;;;;;5062436;28;20177;-67
2021/03/08 06:06:55;;;;;;;0.40;0.40;;;-2.70;99.90;;;;;;5074031;28;20200;-67
2021/03/08 06:09:25;;;;;;;0.40;0.40;;;-2.60;99.90;;;;;;5057387;28;20200;-68
2021/03/08 06:12:02;;;;;;;0.73;0.73;;;-2.60;99.90;;;;;;5074010;28;20173;-66
2021/03/08 06:14:40;;;;;;;0.40;0.40;;;-2.50;99.90;;;;;;5063246;28;20180;-67
2021/03/08 06:17:11;;;;;;;2.05;1.95;;;-2.40;99.90;;;;;;5073743;28;20618;-66
2021/03/08 06:19:38;;;;;;;0.30;0.30;;;-2.30;99.90;;;;;;5055458;28;20166;-67
2021/03/08 06:22:06;;;;;;;0.60;0.60;;;-2.10;99.90;;;;;;5053435;28;20173;-67
2021/03/08 06:24:35;;;;;;;0.40;0.40;;;-1.90;99.90;;;;;;5058391;28;20177;-67
2021/03/08 06:27:02;;;;;;;0.40;0.40;;;-1.60;99.90;;;;;;5056609;28;20197;-66
2021/03/08 06:29:29;;;;;;;0.38;0.38;;;-1.40;99.90;;;;;;5053797;28;20184;-66
2021/03/08 06:31:55;;;;;;;0.43;0.43;;;-1.10;99.90;;;;;;5062071;28;20226;-67
2021/03/08 06:34:21;;;;;;;0.40;0.40;;;-0.90;99.90;;;;;;5071200;28;20253;-66
2021/03/08 06:36:47;;;;;;;0.40;0.40;;;-0.90;99.90;;;;;;5073345;28;20283;-68
2021/03/08 06:39:13;;;;;;;0.40;0.40;;;-0.70;99.90;;;;;;5056993;28;20552;-68
2021/03/08 06:41:38;;;;;;;0.40;0.40;;;-0.50;99.90;;;;;;5053445;28;20204;-68
2021/03/08 06:44:04;;;;;;;0.40;0.40;;;-0.20;99.90;;;;;;5052446;28;20173;-67
2021/03/08 06:46:31;;;;;;;0.40;0.40;;;0.30;99.90;;;;;;5058903;28;20208;-67
2021/03/08 06:48:56;;;;;;;1.73;1.63;;;0.80;99.90;;;;;;5053075;28;20415;-67
2021/03/08 06:51:22;;;;;;;0.30;0.30;;;1.10;99.90;;;;;;5053044;28;20181;-68
2021/03/08 06:53:48;;;;;;;0.30;0.30;;;1.40;99.90;;;;;;5052989;28;20188;-66
2021/03/08 06:56:24;;;;;;;0.30;0.30;;;1.80;99.90;;;;;;5068457;28;20212;-68
2021/03/08 06:59:13;;;;;;;0.40;0.40;;;2.20;99.90;;;;;;5073320;28;20192;-68
2021/03/08 07:01:44;;;;;;;0.50;0.50;;;2.60;99.90;;;;;;5062265;28;20200;-67
2021/03/08 07:04:14;;;;;;;2.05;1.95;;;2.80;99.90;;;;;;5072914;28;20168;-66
2021/03/08 07:06:40;;;;;;;0.38;0.38;;;2.90;99.90;;;;;;5072850;28;20205;-68
2021/03/08 07:09:11;;;;;;;0.95;0.93;;;3.00;99.90;;;;;;5071834;28;20237;-67
2021/03/08 07:11:37;;;;;;;0.30;0.30;;;3.30;99.90;;;;;;5053512;28;20173;-67
2021/03/08 07:14:17;;;;;;;0.60;0.60;;;3.60;99.90;;;;;;5052901;28;20663;-68
2021/03/08 07:16:42;;;;;;;1.50;1.40;;;4.10;99.90;;;;;;5072395;28;20295;-69
2021/03/08 07:19:08;;;;;;;0.53;0.53;;;4.60;99.90;;;;;;5065759;28;20731;-66
2021/03/08 07:21:34;;;;;;;0.40;0.40;;;4.90;98.30;;;;;;5053240;28;20166;-66
2021/03/08 07:24:15;;;;;;;1.57;1.47;;;5.00;97.40;;;;;;5054699;28;20168;-68
2021/03/08 07:26:53;;;;;;;2.83;2.10;;;5.10;97.00;;;;;;5052701;28;20194;-66
2021/03/08 07:29:20;;;;;;;0.90;0.88;;;5.00;96.00;;;;;;5059646;28;20259;-66
2021/03/08 07:31:48;;;;;;;0.68;0.68;;;5.20;96.60;;;;;;5071381;28;20733;-67
2021/03/08 07:34:15;;;;;;;1.92;1.83;;;5.30;95.70;;;;;;5062030;28;20218;-67
2021/03/08 07:36:43;;;;;;;1.10;1.10;;;5.50;96.10;;;;;;5065477;28;20266;-68
2021/03/08 07:39:16;;;;;;;0.77;0.63;;;5.90;95.50;;;;;;5057220;28;20200;-67
2021/03/08 07:42:00;;;;;;;1.02;1.02;;;6.30;94.90;;;;;;5073204;28;20180;-67
2021/03/08 07:44:28;;;;;;;0.85;0.85;;;6.40;93.80;;;;;;5071474;28;20177;-66
2021/03/08 07:46:58;;;;;;;0.93;0.93;;;6.60;93.70;;;;;;5070612;28;20675;-67
2021/03/08 07:49:37;;;;;;;2.80;1.10;;;6.90;94.20;;;;;;5065306;28;20910;-67
2021/03/08 07:52:11;;;;;;;0.50;0.40;;;7.50;93.10;;;;;;5053568;28;20178;-63
2021/03/08 07:55:00;;;;;;;0.80;0.70;;;7.80;91.70;;;;;;5052320;28;20522;-64
2021/03/08 07:57:28;;;;;;;3.10;1.17;;;8.30;91.40;;;;;;5052491;28;20458;-65
2021/03/08 07:59:54;;;;;;;1.67;0.87;;;8.60;88.70;;;;;;5053633;28;20756;-63
2021/03/08 08:02:21;;;;;;;1.80;0.40;;;8.80;87.20;;;;;;5068652;28;20417;-64
2021/03/08 08:04:46;;;;;;;2.77;0.90;;;9.20;87.10;;;;;;5096202;28;20401;-64
2021/03/08 08:07:13;;;;;;;3.60;1.13;;;9.90;85.80;;;;;;5078883;28;20425;-64
2021/03/08 08:09:40;;;;;;;2.80;0.70;;;10.40;82.00;;;;;;5062187;28;20261;-63
2021/03/08 08:12:21;;;;;;;2.70;1.07;;;10.80;79.40;;;;;;5070443;28;20478;-64
2021/03/08 08:14:50;;;;;;;2.80;1.10;;;10.80;76.60;;;;;;5060133;28;20431;-65
2021/03/08 08:17:20;;;;;;;2.53;0.53;;;11.00;76.10;;;;;;5055933;28;20468;-65
2021/03/08 08:19:46;;;;;;;3.30;1.63;;;11.50;75.50;;;;;;5065261;28;20423;-66
2021/03/08 08:22:23;;;;;;;2.80;0.80;;;11.80;73.80;;;;;;5055896;28;20827;-64
2021/03/08 08:24:52;;;;;;;2.87;0.60;;;12.20;71.80;;;;;;5069773;28;20450;-64
2021/03/08 08:27:18;;;;;;;2.90;0.70;;;12.60;70.00;;;;;;5075634;28;20425;-64
2021/03/08 08:29:49;;;;;;;2.80;0.53;;;12.70;69.40;;;;;;5071178;28;20494;-65
2021/03/08 08:32:16;;;;;;;5.50;0.70;;;12.40;67.00;;;;;;5075616;28;20461;-63
2021/03/08 08:34:44;;;;;;;3.00;0.80;;;12.40;69.00;;;;;;5073554;28;20426;-64
2021/03/08 08:37:20;;;;;;;3.20;1.00;;;13.00;68.80;;;;;;5065998;28;20466;-64
2021/03/08 08:39:52;;;;;;;3.87;2.27;;;13.40;65.30;;;;;;5070735;28;20468;-63
2021/03/08 08:42:19;;;;;;;2.90;0.67;;;13.30;65.40;;;;;;5073988;28;20422;-63
2021/03/08 08:44:49;;;;;;;3.90;1.53;;;13.70;63.80;;;;;;5059322;28;20521;-64
2021/03/08 08:47:19;;;;;;;3.03;0.60;;;13.70;62.50;;;;;;5083715;28;20428;-63
2021/03/08 08:49:48;;;;;;;3.30;1.03;;;14.00;63.80;;;;;;5069075;28;20426;-65
2021/03/08 08:52:14;;;;;;;3.67;1.07;;;14.30;61.60;;;;;;5086571;28;20503;-65
2021/03/08 08:54:40;;;;;;;3.47;1.53;;;14.50;60.40;;;;;;5087052;28;20438;-64
2021/03/08 08:57:10;;;;;;;2.70;0.60;;;14.30;58.80;;;;;;5082670;28;20533;-66
2021/03/08 08:59:37;;;;;;;3.10;1.00;;;14.30;58.70;;;;;;5085459;28;20188;-66
2021/03/08 09:02:13;;;;;;;2.90;0.90;;;14.40;58.40;;;;;;5078088;28;20426;-65
2021/03/08 09:04:39;;;;;;;3.03;1.20;;;14.40;57.90;;;;;;5054479;28;20435;-65
2021/03/08 09:07:24;;;;;;;3.00;1.20;;;14.80;58.50;;;;;;5061815;28;20430;-64
2021/03/08 09:09:50;;;;;;;3.70;2.10;;;15.20;57.30;;;;;;5082210;28;20423;-65
2021/03/08 09:12:35;;;;;;;2.70;0.83;;;15.40;55.80;;;;;;5065961;28;20424;-66
2021/03/08 09:15:06;;;;;;;2.67;0.63;;;15.90;56.30;;;;;;5054337;28;20575;-68
2021/03/08 09:17:49;;;;;;;4.33;2.77;;;16.50;55.60;;;;;;5064998;28;20542;-68
2021/03/08 09:20:14;;;;;;;3.87;2.27;;;16.70;55.10;;;;;;5068682;28;20777;-64
2021/03/08 09:22:46;;;;;;;2.80;1.13;;;16.90;54.70;;;;;;5070160;28;20427;-65
2021/03/08 09:25:33;;;;;;;4.60;2.00;;;16.90;54.70;;;;;;5074044;28;20206;-66
2021/03/08 09:27:59;;;;;;;2.97;0.63;;;16.70;53.90;;;;;;5069401;28;20538;-64
2021/03/08 09:30:28;;;;;;;3.57;1.57;;;16.70;53.60;;;;;;5074670;28;20427;-64
2021/03/08 09:33:01;;;;;;;2.57;0.90;;;16.50;53.10;;;;;;5061878;28;20179;-65
2021/03/08 09:35:32;;;;;;;3.80;1.23;;;16.40;53.90;;;;;;5068357;28;20448;-64
2021/03/08 09:38:20;;;;;;;3.53;1.13;;;16.50;55.80;;;;;;5062851;28;20870;-64
2021/03/08 09:40:51;;;;;;;2.97;1.63;;;16.80;55.20;;;;;;5056980;28;20438;-64
2021/03/08 09:43:21;;;;;;;2.40;0.77;;;17.10;53.10;;;;;;5061055;28;20933;-65
2021/03/08 09:46:16;;;;;;;3.17;0.93;;;17.00;54.70;;;;;;5053701;28;20433;-65
2021/03/08 09:48:52;;;;;;;2.90;1.13;;;17.10;53.40;;;;;;5071037;28;20955;-64
2021/03/08 09:51:19;;;;;;;2.53;0.80;;;17.20;53.70;;;;;;5070543;28;20409;-64
2021/03/08 09:53:47;;;;;;;5.70;1.33;;;17.40;52.90;;;;;;5067826;28;20415;-65
2021/03/08 09:56:18;;;;;;;3.20;1.63;;;17.40;51.70;;;;;;5064442;28;20466;-64
2021/03/08 09:58:44;;;;;;;3.60;1.47;;;17.30;52.40;;;;;;5071783;28;20427;-65
2021/03/08 10:01:17;;;;;;;3.60;1.50;;;17.30;52.30;;;;;;5074244;28;20422;-64
2021/03/08 10:03:43;;;;;;;3.57;0.93;;;17.20;51.40;;;;;;5072961;28;20924;-64
2021/03/08 10:06:24;;;;;;;3.47;1.90;;;17.40;51.00;;;;;;5073179;28;20474;-64
2021/03/08 10:08:50;;;;;;;2.60;0.70;;;17.60;50.70;;;;;;5054095;28;20470;-64
2021/03/08 10:11:27;;;;;;;2.90;1.17;;;17.80;50.40;;;;;;5055548;28;20423;-65
2021/03/08 10:13:54;;;;;;;2.63;0.80;;;17.80;49.80;;;;;;5053647;28;20543;-65
2021/03/08 10:16:24;;;;;;;2.83;1.23;;;17.60;50.10;;;;;;5054179;28;20513;-63
2021/03/08 10:18:50;;;;;;;2.30;0.83;;;17.10;50.00;;;;;;5055212;28;20428;-64
2021/03/08 10:21:16;;;;;;;2.30;0.60;;;16.80;50.50;;;;;;5054379;28;20415;-65
2021/03/08 10:23:42;;;;;;;2.43;0.80;;;16.40;50.70;;;;;;5057265;28;20573;-65
2021/03/08 10:26:10;;;;;;;2.37;0.87;;;15.90;51.10;;;;;;5071336;28;20199;-64
2021/03/08 10:28:42;;;;;;;2.30;0.63;;;15.70;51.50;;;;;;5073860;28;20266;-65
2021/03/08 10:31:17;;;;;;;2.30;0.80;;;15.70;51.10;;;;;;5058350;28;20557;-65
2021/03/08 10:33:45;;;;;;;2.10;0.40;;;15.60;51.30;;;;;;5071705;28;20428;-66
2021/03/08 10:36:15;;;;;;;3.23;1.27;;;15.20;52.00;;;;;;5073318;28;20431;-65
2021/03/08 10:38:41;;;;;;;2.30;0.63;;;14.50;52.60;;;;;;5065229;28;20430;-65
2021/03/08 10:41:07;;;;;;;3.20;1.80;;;14.60;52.90;;;;;;5053521;28;20419;-65
2021/03/08 10:43:35;;;;;;;2.63;1.00;;;14.30;52.50;;;;;;5054418;28;20531;-65
2021/03/08 10:46:02;;;;;;;4.00;1.50;;;14.00;53.80;;;;;;5057499;28;20442;-65
2021/03/08 10:48:28;;;;;;;2.13;0.53;;;13.60;54.10;;;;;;5058750;28;20416;-65
2021/03/08 10:50:56;;;;;;;2.20;0.40;;;14.00;53.80;;;;;;5051941;28;20922;-65
2021/03/08 10:53:23;;;;;;;2.47;0.70;;;14.60;53.20;;;;;;5063699;28;20510;-65
2021/03/08 10:55:50;;;;;;;4.17;2.00;;;14.40;52.90;;;;;;5057046;28;20455;-65
2021/03/08 10:58:16;;;;;;;2.87;0.73;;;14.60;52.60;;;;;;5064345;28;20461;-66
2021/03/08 11:00:44;;;;;;;4.77;0.83;;;14.70;52.60;;;;;;5073317;28;20404;-65
2021/03/08 11:03:35;;;;;;;3.00;1.23;;;14.70;53.20;;;;;;5063124;28;20829;-65
2021/03/08 11:06:11;;;;;;;2.37;0.87;;;14.40;53.30;;;;;;5052867;28;20439;-65
2021/03/08 11:08:39;;;;;;;2.30;0.67;;;14.60;53.40;;;;;;5064799;28;20418;-67
2021/03/08 11:11:18;;;;;;;2.10;0.40;;;14.70;52.70;;;;;;5053530;28;20819;-65
2021/03/08 11:13:48;;;;;;;2.10;0.30;;;14.90;52.70;;;;;;5065257;28;20418;-67
2021/03/08 11:16:15;;;;;;;2.17;0.50;;;15.10;52.60;;;;;;5072902;28;20441;-65
2021/03/08 11:18:42;;;;;;;2.43;0.60;;;14.60;51.90;;;;;;5058535;28;20474;-65
2021/03/08 11:21:28;;;;;;;4.33;1.13;;;14.20;52.50;;;;;;5055207;28;20448;-66
2021/03/08 11:24:13;;;;;;;2.10;0.40;;;13.70;52.90;;;;;;5060081;28;20507;-65
2021/03/08 11:26:39;;;;;;;2.10;0.40;;;13.40;54.30;;;;;;5050485;28;20449;-64
2021/03/08 11:29:04;;;;;;;2.30;0.80;;;12.60;55.10;;;;;;5052813;28;20415;-65
2021/03/08 11:31:30;;;;;;;2.17;0.40;;;11.70;55.30;;;;;;5057250;28;20434;-66
2021/03/08 11:33:56;;;;;;;2.80;1.20;;;11.20;56.10;;;;;;5072640;28;20213;-65
2021/03/08 11:36:35;;;;;;;2.10;0.40;;;10.90;56.70;;;;;;5072181;28;20530;-66
2021/03/08 11:39:05;;;;;;;2.20;0.57;;;10.80;58.00;;;;;;5068143;28;20835;-67
2021/03/08 11:41:43;;;;;;;2.30;0.90;;;10.70;57.40;;;;;;5061555;28;20844;-66
2021/03/08 11:44:08;;;;;;;2.50;0.98;;;10.50;57.30;;;;;;5056377;28;20431;-67
2021/03/08 11:46:34;;;;;;;3.23;1.87;;;10.20;57.60;;;;;;5067935;28;20709;-65
2021/03/08 11:49:04;;;;;;;2.30;0.40;;;9.80;58.80;;;;;;5055345;28;20509;-66
2021/03/08 11:51:30;;;;;;;3.67;1.30;;;9.70;60.00;;;;;;5056675;28;20208;-67
2021/03/08 11:53:56;;;;;;;2.60;0.93;;;9.40;61.00;;;;;;5056088;28;20205;-66
2021/03/08 11:56:24;;;;;;;2.35;0.40;;;9.30;61.00;;;;;;5067629;28;20208;-64
2021/03/08 11:58:50;;;;;;;2.80;0.70;;;9.20;60.90;;;;;;5076624;28;20678;-66
2021/03/08 12:01:16;;;;;;;2.70;1.10;;;9.00;61.50;;;;;;5065058;28;20253;-67
2021/03/08 12:03:41;;;;;;;2.40;0.40;;;8.80;62.30;;;;;;5055097;28;20200;-68
2021/03/08 12:06:07;;;;;;;2.40;0.30;;;8.70;61.70;;;;;;5068151;28;20196;-66
2021/03/08 12:08:33;;;;;;;2.47;0.30;;;8.60;63.50;;;;;;5075241;28;20198;-66
2021/03/08 12:10:59;;;;;;;2.47;0.40;;;8.60;63.10;;;;;;5071542;28;20238;-66
2021/03/08 12:13:24;;;;;;;2.50;0.40;;;8.70;61.70;;;;;;5067288;28;20177;-67
2021/03/08 12:15:51;;;;;;;2.60;0.67;;;8.70;61.80;;;;;;5075428;28;20196;-69
2021/03/08 12:18:17;;;;;;;2.72;0.90;;;8.70;63.60;;;;;;5069281;28;20694;-70
2021/03/08 12:20:43;;;;;;;2.97;1.40;;;8.70;65.30;;;;;;5071098;28;20661;-69
2021/03/08 12:23:08;;;;;;;2.50;0.40;;;8.80;64.20;;;;;;5064965;28;20178;-70
2021/03/08 12:25:34;;;;;;;2.50;0.50;;;8.80;63.30;;;;;;5063585;28;20192;-69
2021/03/08 12:28:00;;;;;;;2.70;0.93;;;8.80;64.10;;;;;;5075727;28;20165;-69
2021/03/08 12:30:25;;;;;;;2.40;0.30;;;8.60;63.80;;;;;;5066828;28;20181;-69
2021/03/08 12:32:51;;;;;;;2.60;0.70;;;8.50;64.80;;;;;;5062486;28;20185;-69
2021/03/08 12:35:17;;;;;;;2.50;0.50;;;8.40;63.90;;;;;;5069025;28;20430;-69
2021/03/08 12:37:43;;;;;;;2.50;0.50;;;8.40;63.30;;;;;;5055838;28;20244;-70
2021/03/08 12:40:09;;;;;;;2.70;0.90;;;8.40;62.20;;;;;;5075371;28;20229;-69
2021/03/08 12:42:34;;;;;;;2.60;0.57;;;8.30;63.50;;;;;;5075688;28;20169;-69
2021/03/08 12:45:00;;;;;;;2.60;0.80;;;8.30;62.50;;;;;;5074438;28;20210;-69
2021/03/08 12:47:26;;;;;;;2.40;0.40;;;8.40;64.20;;;;;;5068797;28;20181;-65
2021/03/08 12:49:51;;;;;;;2.40;0.50;;;8.60;63.90;;;;;;5062944;28;20648;-66
2021/03/08 12:52:17;;;;;;;2.50;0.77;;;8.70;62.70;;;;;;5064463;28;20169;-65
2021/03/08 12:54:43;;;;;;;4.10;0.80;;;8.80;62.50;;;;;;5063143;28;20170;-67
2021/03/08 12:57:08;;;;;;;2.43;0.40;;;8.70;60.60;;;;;;5055180;28;20285;-67
2021/03/08 12:59:34;;;;;;;3.07;1.30;;;8.60;61.20;;;;;;5055182;28;20188;-69
2021/03/08 13:02:00;;;;;;;3.00;1.10;;;8.60;61.90;;;;;;5056890;28;20172;-68